createdAt,value
2019-03-01T00:01:43.418Z,39.00
2019-03-01T00:04:15.826Z,38.70
2019-03-01T00:06:45.596Z,38.70
2019-03-01T00:09:21.057Z,38.70
2019-03-01T00:11:56.527Z,38.70
2019-03-01T00:14:26.173Z,38.40
2019-03-01T00:16:59.389Z,38.30
2019-03-01T00:19:31.593Z,37.80
2019-03-01T00:22:01.163Z,37.90
2019-03-01T00:24:36.484Z,38.60
2019-03-01T00:27:11.712Z,38.60
2019-03-01T00:29:53.090Z,39.00
2019-03-01T00:32:31.583Z,39.00
2019-03-01T00:35:17.637Z,39.00
2019-03-01T00:37:52.896Z,39.00
2019-03-01T00:40:22.644Z,39.00
2019-03-01T00:42:57.690Z,38.70
2019-03-01T00:45:26.682Z,38.60
2019-03-01T00:47:54.861Z,38.70
2019-03-01T00:50:22.914Z,38.80
2019-03-01T00:52:50.717Z,39.00
2019-03-01T00:55:18.579Z,38.70
2019-03-01T00:57:46.640Z,38.90
2019-03-01T01:00:16.215Z,38.50
2019-03-01T01:02:44.218Z,37.90
2019-03-01T01:05:12.237Z,37.80
2019-03-01T01:07:40.231Z,37.80
2019-03-01T01:10:09.222Z,37.80
2019-03-01T01:12:38.828Z,37.70
2019-03-01T01:15:07.559Z,37.50
2019-03-01T01:17:36.339Z,37.70
2019-03-01T01:20:05.361Z,37.80
2019-03-01T01:22:33.320Z,37.70
2019-03-01T01:25:01.253Z,37.90
2019-03-01T01:27:29.570Z,37.80
2019-03-01T01:29:57.666Z,37.80
2019-03-01T01:32:26.100Z,37.60
2019-03-01T01:34:54.533Z,37.00
2019-03-01T01:37:22.703Z,36.90
2019-03-01T01:39:50.696Z,36.60
2019-03-01T01:42:18.686Z,36.40
2019-03-01T01:44:46.733Z,37.00
2019-03-01T01:47:14.690Z,37.30
2019-03-01T01:49:42.849Z,37.20
2019-03-01T01:52:10.964Z,37.40
2019-03-01T01:54:38.908Z,37.60
2019-03-01T01:57:06.917Z,37.90
2019-03-01T01:59:35.974Z,37.60
2019-03-01T02:02:03.935Z,37.70
2019-03-01T02:04:31.831Z,37.80
2019-03-01T02:06:59.837Z,37.70
2019-03-01T02:09:28.034Z,38.10
2019-03-01T02:11:56.056Z,38.30
2019-03-01T02:14:24.208Z,38.10
2019-03-01T02:16:52.935Z,38.20
2019-03-01T02:19:20.860Z,37.80
2019-03-01T02:21:48.649Z,37.70
2019-03-01T02:24:16.747Z,37.50
2019-03-01T02:26:44.787Z,37.10
2019-03-01T02:29:12.755Z,37.00
2019-03-01T02:31:42.332Z,37.40
2019-03-01T02:34:10.318Z,37.50
2019-03-01T02:36:38.233Z,37.70
2019-03-01T02:39:06.332Z,37.80
2019-03-01T02:41:34.354Z,37.90
2019-03-01T02:44:02.341Z,37.80
2019-03-01T02:46:30.356Z,37.40
2019-03-01T02:48:59.494Z,37.20
2019-03-01T02:51:27.657Z,37.40
2019-03-01T02:53:55.697Z,37.30
2019-03-01T02:56:23.668Z,37.50
2019-03-01T02:58:52.283Z,37.80
2019-03-01T03:01:20.444Z,38.00
2019-03-01T03:03:49.861Z,37.90
2019-03-01T03:06:22.780Z,37.90
2019-03-01T03:08:50.708Z,38.00
2019-03-01T03:11:20.879Z,37.70
2019-03-01T03:13:49.005Z,37.60
2019-03-01T03:16:16.886Z,37.60
2019-03-01T03:18:45.604Z,37.60
2019-03-01T03:21:14.741Z,38.00
2019-03-01T03:23:42.743Z,37.90
2019-03-01T03:26:10.818Z,37.80
2019-03-01T03:28:38.848Z,38.00
2019-03-01T03:31:06.806Z,38.00
2019-03-01T03:33:34.829Z,38.00
2019-03-01T03:36:02.827Z,38.10
2019-03-01T03:38:31.157Z,38.50
2019-03-01T03:40:59.027Z,38.50
2019-03-01T03:43:26.886Z,38.30
2019-03-01T03:45:54.986Z,38.20
2019-03-01T03:48:22.954Z,38.50
2019-03-01T03:50:51.081Z,38.90
2019-03-01T03:53:18.896Z,39.40
2019-03-01T03:55:46.845Z,39.20
2019-03-01T03:58:16.513Z,39.50
2019-03-01T04:00:44.479Z,39.50
2019-03-01T04:03:13.706Z,38.80
2019-03-01T04:05:41.843Z,38.10
2019-03-01T04:08:10.773Z,37.90
2019-03-01T04:10:38.779Z,37.70
2019-03-01T04:13:06.780Z,37.70
2019-03-01T04:15:36.780Z,37.70
2019-03-01T04:18:04.626Z,38.10
2019-03-01T04:20:33.926Z,37.90
2019-03-01T04:23:02.047Z,38.20
2019-03-01T04:25:30.100Z,38.10
2019-03-01T04:27:57.985Z,37.50
2019-03-01T04:30:26.127Z,37.50
2019-03-01T04:32:54.097Z,37.30
2019-03-01T04:35:22.363Z,37.00
2019-03-01T04:37:50.387Z,37.30
2019-03-01T04:40:18.505Z,37.40
2019-03-01T04:42:46.772Z,37.50
2019-03-01T04:45:15.822Z,37.50
2019-03-01T04:47:44.165Z,37.50
2019-03-01T04:50:12.563Z,37.30
2019-03-01T04:52:40.851Z,37.90
2019-03-01T04:55:10.517Z,37.10
2019-03-01T04:57:40.023Z,37.60
2019-03-01T05:00:15.520Z,37.90
2019-03-01T05:02:43.889Z,37.60
2019-03-01T05:05:14.131Z,37.10
2019-03-01T05:07:42.145Z,36.70
2019-03-01T05:10:11.449Z,36.30
2019-03-01T05:12:39.447Z,36.10
2019-03-01T05:15:09.471Z,36.00
2019-03-01T05:17:37.446Z,36.20
2019-03-01T05:20:06.093Z,36.10
2019-03-01T05:22:34.175Z,36.20
2019-03-01T05:25:02.145Z,36.50
2019-03-01T05:27:30.340Z,36.20
2019-03-01T05:29:58.587Z,36.10
2019-03-01T05:32:26.571Z,36.10
2019-03-01T05:34:54.578Z,36.10
2019-03-01T05:37:22.646Z,36.30
2019-03-01T05:39:50.582Z,36.30
2019-03-01T05:42:18.580Z,36.40
2019-03-01T05:44:46.692Z,37.20
2019-03-01T05:47:14.652Z,37.10
2019-03-01T05:49:42.570Z,37.40
2019-03-01T05:52:10.670Z,37.40
2019-03-01T05:54:38.670Z,36.80
2019-03-01T05:57:07.327Z,36.50
2019-03-01T05:59:35.465Z,36.00
2019-03-01T06:02:05.330Z,35.50
2019-03-01T06:04:37.630Z,35.50
2019-03-01T06:07:22.531Z,35.60
2019-03-01T06:09:54.899Z,36.20
2019-03-01T06:12:39.858Z,36.80
2019-03-01T06:15:28.018Z,37.20
2019-03-01T06:17:57.770Z,37.70
2019-03-01T06:20:27.419Z,37.60
2019-03-01T06:23:03.698Z,37.00
2019-03-01T06:25:45.516Z,36.70
2019-03-01T06:28:24.179Z,36.60
2019-03-01T06:31:12.459Z,36.30
2019-03-01T06:33:51.059Z,36.10
2019-03-01T06:36:23.739Z,35.90
2019-03-01T06:39:16.090Z,36.00
2019-03-01T06:41:51.689Z,35.80
2019-03-01T06:44:25.680Z,35.90
2019-03-01T06:47:01.225Z,36.20
2019-03-01T06:49:31.352Z,36.20
2019-03-01T06:51:59.343Z,36.80
2019-03-01T06:54:27.348Z,36.50
2019-03-01T06:56:55.936Z,36.60
2019-03-01T06:59:25.738Z,36.90
2019-03-01T07:01:54.050Z,36.50
2019-03-01T07:04:22.477Z,36.10
2019-03-01T07:06:51.412Z,35.80
2019-03-01T07:09:19.876Z,35.20
2019-03-01T07:11:47.841Z,34.90
2019-03-01T07:14:16.292Z,35.00
2019-03-01T07:16:44.504Z,34.90
2019-03-01T07:19:12.895Z,34.60
2019-03-01T07:21:42.493Z,35.00
2019-03-01T07:24:11.221Z,35.30
2019-03-01T07:26:39.434Z,35.10
2019-03-01T07:29:08.773Z,34.90
2019-03-01T07:31:37.678Z,34.60
2019-03-01T07:34:06.813Z,34.20
2019-03-01T07:36:35.848Z,34.10
2019-03-01T07:39:08.513Z,34.10
2019-03-01T07:41:37.647Z,34.00
2019-03-01T07:44:09.976Z,34.20
2019-03-01T07:46:39.356Z,34.10
2019-03-01T07:49:08.651Z,33.90
2019-03-01T07:51:38.873Z,33.60
2019-03-01T07:54:07.972Z,33.50
2019-03-01T07:56:40.689Z,33.40
2019-03-01T07:59:09.764Z,32.70
2019-03-01T08:01:39.151Z,32.70
2019-03-01T08:04:07.969Z,32.90
2019-03-01T08:06:38.774Z,32.90
2019-03-01T08:09:14.279Z,32.20
2019-03-01T08:11:44.719Z,32.20
2019-03-01T08:14:13.877Z,31.90
2019-03-01T08:16:42.890Z,31.60
2019-03-01T08:19:16.167Z,31.50
2019-03-01T08:21:45.910Z,31.20
2019-03-01T08:24:14.935Z,31.10
2019-03-01T08:26:44.116Z,30.70
2019-03-01T08:29:13.418Z,30.00
2019-03-01T08:31:43.346Z,29.80
2019-03-01T08:34:14.460Z,29.80
2019-03-01T08:36:44.506Z,29.60
2019-03-01T08:39:14.621Z,29.20
2019-03-01T08:41:43.694Z,28.80
2019-03-01T08:44:12.956Z,28.10
2019-03-01T08:46:45.664Z,28.10
2019-03-01T08:49:13.757Z,28.30
2019-03-01T08:51:42.954Z,27.90
2019-03-01T08:54:11.985Z,27.90
2019-03-01T08:56:41.132Z,28.10
2019-03-01T08:59:14.036Z,28.50
2019-03-01T09:01:44.656Z,28.60
2019-03-01T09:04:18.102Z,28.60
2019-03-01T09:06:45.617Z,29.40
2019-03-01T09:09:17.666Z,28.70
2019-03-01T09:11:46.668Z,29.00
2019-03-01T09:14:18.119Z,29.00
2019-03-01T09:16:47.350Z,28.70
2019-03-01T09:19:16.510Z,28.70
2019-03-01T09:21:49.929Z,29.00
2019-03-01T09:24:16.601Z,29.10
2019-03-01T09:26:45.793Z,29.10
2019-03-01T09:29:18.452Z,29.00
2019-03-01T09:31:46.951Z,28.90
2019-03-01T09:34:16.422Z,29.20
2019-03-01T09:36:47.393Z,29.50
2019-03-01T09:39:18.013Z,29.60
2019-03-01T09:41:48.167Z,29.40
2019-03-01T09:44:17.370Z,29.20
2019-03-01T09:46:46.451Z,29.20
2019-03-01T09:49:15.613Z,29.20
2019-03-01T09:51:49.219Z,29.10
2019-03-01T09:54:15.497Z,29.30
2019-03-01T09:56:44.582Z,29.00
2019-03-01T09:59:15.044Z,28.70
2019-03-01T10:01:44.644Z,28.60
2019-03-01T10:04:14.468Z,28.90
2019-03-01T10:06:43.313Z,29.20
2019-03-01T10:09:12.600Z,29.10
2019-03-01T10:11:41.860Z,28.90
2019-03-01T10:14:11.116Z,29.00
2019-03-01T10:16:40.281Z,29.00
2019-03-01T10:19:09.608Z,29.20
2019-03-01T10:21:38.999Z,28.80
2019-03-01T10:24:08.129Z,28.60
2019-03-01T10:26:38.782Z,28.60
2019-03-01T10:29:08.232Z,28.50
2019-03-01T10:31:37.197Z,28.40
2019-03-01T10:34:06.477Z,28.60
2019-03-01T10:36:35.588Z,28.80
2019-03-01T10:39:05.559Z,28.50
2019-03-01T10:41:34.452Z,28.20
2019-03-01T10:44:03.177Z,28.00
2019-03-01T10:46:33.312Z,28.00
2019-03-01T10:49:02.393Z,27.90
2019-03-01T10:51:31.059Z,27.60
2019-03-01T10:53:59.798Z,27.30
2019-03-01T10:56:28.426Z,27.00
2019-03-01T10:58:58.462Z,26.30
2019-03-01T11:01:27.478Z,25.90
2019-03-01T11:03:56.074Z,26.00
2019-03-01T11:06:25.601Z,26.20
2019-03-01T11:08:54.171Z,26.10
2019-03-01T11:11:23.374Z,25.50
2019-03-01T11:13:52.362Z,25.40
2019-03-01T11:16:21.419Z,25.60
2019-03-01T11:18:50.415Z,25.90
2019-03-01T11:21:19.324Z,26.20
2019-03-01T11:23:48.161Z,25.90
2019-03-01T11:26:16.907Z,26.10
2019-03-01T11:28:45.650Z,26.20
2019-03-01T11:31:14.424Z,26.00
2019-03-01T11:33:43.040Z,25.50
2019-03-01T11:36:13.103Z,25.00
2019-03-01T11:38:43.880Z,24.80
2019-03-01T11:41:12.975Z,24.80
2019-03-01T11:43:41.892Z,25.20
2019-03-01T11:46:10.994Z,25.90
2019-03-01T11:48:39.858Z,26.10
2019-03-01T11:51:08.867Z,26.20
2019-03-01T11:53:37.639Z,26.50
2019-03-01T11:56:06.433Z,27.50
2019-03-01T11:58:35.128Z,28.00
2019-03-01T12:01:04.041Z,27.80
2019-03-01T12:03:33.199Z,27.40
2019-03-01T12:06:02.151Z,27.60
2019-03-01T12:08:31.092Z,27.30
2019-03-01T12:10:59.719Z,27.00
2019-03-01T12:13:28.749Z,27.20
2019-03-01T12:15:57.825Z,27.40
2019-03-01T12:18:26.964Z,27.70
2019-03-01T12:20:56.173Z,27.90
2019-03-01T12:23:25.059Z,28.10
2019-03-01T12:25:54.014Z,28.40
2019-03-01T12:28:23.095Z,29.20
2019-03-01T12:30:52.239Z,29.10
2019-03-01T12:33:21.336Z,29.40
2019-03-01T12:35:49.286Z,29.20
2019-03-01T12:38:17.394Z,29.00
2019-03-01T12:40:45.710Z,30.00
2019-03-01T12:43:14.868Z,30.20
2019-03-01T12:45:45.910Z,29.60
2019-03-01T12:48:14.919Z,28.90
2019-03-01T12:50:44.083Z,28.50
2019-03-01T12:53:12.863Z,28.60
2019-03-01T12:55:41.911Z,28.20
2019-03-01T12:58:19.183Z,28.50
2019-03-01T13:00:41.328Z,28.90
2019-03-01T13:03:11.854Z,29.00
2019-03-01T13:05:40.747Z,29.00
2019-03-01T13:11:20.152Z,29.10
2019-03-01T13:13:49.254Z,29.70
2019-03-01T13:16:18.271Z,29.50
2019-03-01T13:18:47.775Z,29.20
2019-03-01T13:21:17.693Z,29.20
2019-03-01T13:23:46.646Z,29.60
2019-03-01T13:26:15.646Z,29.20
2019-03-01T13:28:47.086Z,29.70
2019-03-01T13:31:14.867Z,29.60
2019-03-01T13:33:44.224Z,29.40
2019-03-01T13:36:13.382Z,29.20
2019-03-01T13:38:42.596Z,29.10
2019-03-01T13:41:11.951Z,29.30
2019-03-01T13:43:39.962Z,29.70
2019-03-01T13:46:08.312Z,30.40
2019-03-01T13:48:36.613Z,30.00
2019-03-01T13:51:04.552Z,30.20
2019-03-01T13:53:33.323Z,30.10
2019-03-01T13:56:02.496Z,30.00
2019-03-01T13:58:30.819Z,30.30
2019-03-01T14:00:58.990Z,30.40
2019-03-01T14:03:27.783Z,30.60
2019-03-01T14:05:58.153Z,31.50
2019-03-01T14:08:28.142Z,32.70
2019-03-01T14:10:56.879Z,32.50
2019-03-01T14:13:26.681Z,33.00
2019-03-01T14:15:55.053Z,33.10
2019-03-01T14:18:23.031Z,32.90
2019-03-01T14:20:54.300Z,33.50
2019-03-01T14:23:24.642Z,32.30
2019-03-01T14:25:50.999Z,31.30
2019-03-01T14:28:20.108Z,30.40
2019-03-01T14:30:48.357Z,30.00
2019-03-01T14:33:19.551Z,30.40
2019-03-01T14:35:48.194Z,31.90
2019-03-01T14:38:16.192Z,33.90
2019-03-01T14:44:07.334Z,33.70
2019-03-01T14:46:36.938Z,34.10
2019-03-01T14:49:05.067Z,34.10
2019-03-01T14:51:33.179Z,33.90
2019-03-01T14:54:01.594Z,32.90
2019-03-01T14:56:34.912Z,32.70
2019-03-01T14:59:12.366Z,32.20
2019-03-01T15:01:44.939Z,31.80
2019-03-01T15:04:13.534Z,32.70
2019-03-01T15:06:41.759Z,33.20
2019-03-01T15:09:09.901Z,34.00
2019-03-01T15:11:41.190Z,34.60
2019-03-01T15:14:13.448Z,34.90
2019-03-01T15:16:43.342Z,34.90
2019-03-01T15:19:09.993Z,34.20
2019-03-01T15:21:38.426Z,34.30
2019-03-01T15:24:06.912Z,35.00
2019-03-01T15:26:35.136Z,35.40
2019-03-01T15:29:03.435Z,34.60
2019-03-01T15:31:34.542Z,34.50
2019-03-01T15:34:03.231Z,34.00
2019-03-01T15:36:31.343Z,33.90
2019-03-01T15:39:00.283Z,34.40
2019-03-01T15:41:29.160Z,34.40
2019-03-01T15:43:57.442Z,34.20
2019-03-01T15:46:25.367Z,34.90
2019-03-01T15:48:53.574Z,34.80
2019-03-01T15:51:21.806Z,34.70
2019-03-01T15:53:50.335Z,34.20
2019-03-01T15:56:18.611Z,33.20
2019-03-01T15:58:46.814Z,32.30
2019-03-01T16:01:15.076Z,32.10
2019-03-01T16:03:43.251Z,32.00
2019-03-01T16:06:17.269Z,32.90
2019-03-01T16:08:43.950Z,33.50
2019-03-01T16:11:12.629Z,34.00
2019-03-01T16:13:41.411Z,34.30
2019-03-01T16:16:10.807Z,35.00
2019-03-01T16:18:39.905Z,35.20
2019-03-01T16:21:08.293Z,35.50
2019-03-01T16:23:36.511Z,35.60
2019-03-01T16:26:04.705Z,35.10
2019-03-01T16:28:33.084Z,34.70
2019-03-01T16:31:01.151Z,34.10
2019-03-01T16:33:29.967Z,33.70
2019-03-01T16:36:00.954Z,33.60
2019-03-01T16:38:29.290Z,33.60
2019-03-01T16:40:57.131Z,34.00
2019-03-01T16:43:28.629Z,34.20
2019-03-01T16:45:56.392Z,34.30
2019-03-01T16:48:25.169Z,35.10
2019-03-01T16:50:53.202Z,34.90
2019-03-01T16:53:21.454Z,34.90
2019-03-01T16:55:49.794Z,34.70
2019-03-01T16:58:18.201Z,34.70
2019-03-01T17:00:46.269Z,34.50
2019-03-01T17:03:18.011Z,34.40
2019-03-01T17:05:45.549Z,34.10
2019-03-01T17:08:13.941Z,34.20
2019-03-01T17:10:42.562Z,34.20
2019-03-01T17:13:10.864Z,34.00
2019-03-01T17:15:39.796Z,34.00
2019-03-01T17:18:11.285Z,33.60
2019-03-01T17:20:38.594Z,33.70
2019-03-01T17:23:06.771Z,33.30
2019-03-01T17:25:35.352Z,33.40
2019-03-01T17:28:03.777Z,33.40
2019-03-01T17:30:32.297Z,33.30
2019-03-01T17:33:00.760Z,33.50
2019-03-01T17:35:29.167Z,33.30
2019-03-01T17:37:57.780Z,33.30
2019-03-01T17:40:29.424Z,33.50
2019-03-01T17:42:56.622Z,33.60
2019-03-01T17:45:26.570Z,33.40
2019-03-01T17:47:56.616Z,33.20
2019-03-01T17:50:25.423Z,33.00
2019-03-01T17:52:53.689Z,32.60
2019-03-01T17:55:24.345Z,32.70
2019-03-01T17:57:53.379Z,32.60
2019-03-01T18:00:27.757Z,32.70
2019-03-01T18:02:56.193Z,32.60
2019-03-01T18:05:24.620Z,32.60
2019-03-01T18:07:53.261Z,32.70
2019-03-01T18:10:21.593Z,32.80
2019-03-01T18:12:53.130Z,32.80
2019-03-01T18:15:21.110Z,33.00
2019-03-01T18:17:49.378Z,33.10
2019-03-01T18:20:17.885Z,33.10
2019-03-01T18:22:46.396Z,33.00
2019-03-01T18:25:15.449Z,33.00
2019-03-01T18:27:43.677Z,33.10
2019-03-01T18:30:16.079Z,33.70
2019-03-01T18:32:45.059Z,32.80
2019-03-01T18:35:13.773Z,32.90
2019-03-01T18:37:42.205Z,32.90
2019-03-01T18:40:13.480Z,33.00
2019-03-01T18:42:41.042Z,32.80
2019-03-01T18:45:13.347Z,33.20
2019-03-01T18:47:41.381Z,33.00
2019-03-01T18:50:13.863Z,33.10
2019-03-01T18:52:42.142Z,32.90
2019-03-01T18:55:13.652Z,32.80
2019-03-01T18:57:40.410Z,33.40
2019-03-01T19:00:18.826Z,32.80
2019-03-01T19:02:47.023Z,32.80
2019-03-01T19:05:14.977Z,32.80
2019-03-01T19:07:43.143Z,32.90
2019-03-01T19:10:12.970Z,32.90
2019-03-01T19:12:41.009Z,33.00
2019-03-01T19:15:12.176Z,33.00
2019-03-01T19:17:40.786Z,33.00
2019-03-01T19:20:11.339Z,32.80
2019-03-01T19:22:39.369Z,32.70
2019-03-01T19:25:08.530Z,32.70
2019-03-01T19:27:36.917Z,32.80
2019-03-01T19:30:10.510Z,33.40
2019-03-01T19:32:37.333Z,32.90
2019-03-01T19:35:06.415Z,33.10
2019-03-01T19:37:34.410Z,32.70
2019-03-01T19:40:02.489Z,32.50
2019-03-01T19:42:33.128Z,32.30
2019-03-01T19:45:00.820Z,32.20
2019-03-01T19:47:29.888Z,32.00
2019-03-01T19:49:59.294Z,31.90
2019-03-01T19:52:27.387Z,31.90
2019-03-01T19:54:55.603Z,31.90
2019-03-01T19:57:24.738Z,32.10
2019-03-01T19:59:54.053Z,31.90
2019-03-01T20:02:22.292Z,32.00
2019-03-01T20:04:52.535Z,32.30
2019-03-01T20:07:20.781Z,32.20
2019-03-01T20:09:49.266Z,32.30
2019-03-01T20:12:20.785Z,32.10
2019-03-01T20:14:49.540Z,32.20
2019-03-01T20:17:20.057Z,32.30
2019-03-01T20:19:48.108Z,32.20
2019-03-01T20:22:18.560Z,32.10
2019-03-01T20:24:45.913Z,32.00
2019-03-01T20:27:14.076Z,32.10
2019-03-01T20:29:42.160Z,31.70
2019-03-01T20:32:12.552Z,31.60
2019-03-01T20:34:40.022Z,31.40
2019-03-01T20:37:08.126Z,31.30
2019-03-01T20:39:36.207Z,31.30
2019-03-01T20:42:04.522Z,31.10
2019-03-01T20:44:32.435Z,30.70
2019-03-01T20:47:00.506Z,31.20
2019-03-01T20:49:28.587Z,31.10
2019-03-01T20:51:58.734Z,31.90
2019-03-01T20:54:27.080Z,33.90
2019-03-01T20:56:57.484Z,35.40
2019-03-01T20:59:27.161Z,36.00
2019-03-01T21:01:55.438Z,35.50
2019-03-01T21:04:25.714Z,35.30
2019-03-01T21:06:53.975Z,36.00
2019-03-01T21:09:22.193Z,35.80
2019-03-01T21:11:50.589Z,35.30
2019-03-01T21:14:19.199Z,34.90
2019-03-01T21:16:49.104Z,35.00
2019-03-01T21:19:17.466Z,35.00
2019-03-01T21:21:45.903Z,35.30
2019-03-01T21:24:14.780Z,35.70
2019-03-01T21:26:43.262Z,36.10
2019-03-01T21:29:12.497Z,36.60
2019-03-01T21:31:41.702Z,36.50
2019-03-01T21:34:09.902Z,35.70
2019-03-01T21:36:39.924Z,34.80
2019-03-01T21:39:09.497Z,34.50
2019-03-01T21:41:37.911Z,34.80
2019-03-01T21:44:10.344Z,35.50
2019-03-01T21:46:36.699Z,35.60
2019-03-01T21:49:05.001Z,35.30
2019-03-01T21:51:34.917Z,35.50
2019-03-01T21:54:03.247Z,35.40
2019-03-01T21:56:31.383Z,35.80
2019-03-01T21:58:59.857Z,36.40
2019-03-01T22:01:30.783Z,36.50
2019-03-01T22:03:59.265Z,36.90
2019-03-01T22:06:28.857Z,37.20
2019-03-01T22:08:57.234Z,37.20
2019-03-01T22:11:25.701Z,36.70
2019-03-01T22:13:54.163Z,36.70
2019-03-01T22:16:22.409Z,35.90
2019-03-01T22:18:50.920Z,34.60
2019-03-01T22:21:22.624Z,33.00
2019-03-01T22:23:51.461Z,32.80
2019-03-01T22:26:20.055Z,32.80
2019-03-01T22:28:48.125Z,32.70
2019-03-01T22:31:16.294Z,32.30
2019-03-01T22:33:44.641Z,32.60
2019-03-01T22:36:15.281Z,32.50
2019-03-01T22:38:42.880Z,33.10
2019-03-01T22:41:10.998Z,34.00
2019-03-01T22:43:40.259Z,34.00
2019-03-01T22:46:08.915Z,33.90
2019-03-01T22:48:46.420Z,33.80
2019-03-01T22:51:07.224Z,34.20
2019-03-01T22:53:38.571Z,34.70
2019-03-01T22:56:05.294Z,35.70
2019-03-01T22:58:36.456Z,35.70
2019-03-01T23:01:05.498Z,36.20
2019-03-01T23:03:33.616Z,36.10
2019-03-01T23:06:01.505Z,35.90
2019-03-01T23:08:31.749Z,35.80
2019-03-01T23:10:58.944Z,35.30
2019-03-01T23:13:27.092Z,34.70
2019-03-01T23:15:54.889Z,34.70
2019-03-01T23:18:22.910Z,34.70
2019-03-01T23:20:50.981Z,33.80
2019-03-01T23:23:23.786Z,33.60
2019-03-01T23:25:48.448Z,33.60
2019-03-01T23:28:16.814Z,33.90
2019-03-01T23:30:44.891Z,33.50
2019-03-01T23:33:13.005Z,33.10
2019-03-01T23:35:41.300Z,33.00
2019-03-01T23:38:11.584Z,33.00
2019-03-01T23:40:39.376Z,32.60
2019-03-01T23:43:07.352Z,32.30
2019-03-01T23:45:35.488Z,32.70
2019-03-01T23:48:03.848Z,33.00
2019-03-01T23:50:34.940Z,33.50
2019-03-01T23:53:04.434Z,33.60
2019-03-01T23:55:32.772Z,33.70
2019-03-01T23:58:06.003Z,33.80
